createdAt,value
2022-11-27T00:01:27.824Z,101774.88
2022-11-27T00:03:57.505Z,101769.91
2022-11-27T00:06:30.687Z,101766.91
2022-11-27T00:09:00.522Z,101757.88
2022-11-27T00:11:30.776Z,101760.94
2022-11-27T00:14:00.368Z,101756.66
2022-11-27T00:16:30.379Z,101752.66
2022-11-27T00:19:00.037Z,101745.59
2022-11-27T00:21:32.987Z,101743.19
2022-11-27T00:24:03.403Z,101737.28
2022-11-27T00:26:37.545Z,101736.75
2022-11-27T00:29:07.806Z,101731.00
2022-11-27T00:31:38.053Z,101728.66
2022-11-27T00:34:09.050Z,101727.81
2022-11-27T00:36:46.572Z,101732.13
2022-11-27T00:39:17.683Z,101731.75
2022-11-27T00:41:47.261Z,101720.00
2022-11-27T00:44:16.781Z,101727.63
2022-11-27T00:46:46.353Z,101727.47
2022-11-27T00:49:17.219Z,101726.19
2022-11-27T00:51:49.397Z,101714.72
2022-11-27T00:54:22.627Z,101716.69
2022-11-27T00:56:52.276Z,101721.94
2022-11-27T00:59:21.790Z,101720.16
2022-11-27T01:01:51.440Z,101720.00
2022-11-27T01:04:21.052Z,101723.72
2022-11-27T01:06:53.132Z,101721.50
2022-11-27T01:09:22.649Z,101721.47
2022-11-27T01:11:52.149Z,101727.13
2022-11-27T01:14:21.908Z,101727.16
2022-11-27T01:16:51.420Z,101727.16
2022-11-27T01:19:20.952Z,101735.84
2022-11-27T01:21:53.004Z,101723.97
2022-11-27T01:24:22.541Z,101730.38
2022-11-27T01:26:52.033Z,101719.56
2022-11-27T01:29:21.582Z,101718.31
2022-11-27T01:31:51.320Z,101712.53
2022-11-27T01:34:20.915Z,101706.69
2022-11-27T01:36:55.487Z,101710.31
2022-11-27T01:39:25.304Z,101705.69
2022-11-27T01:41:54.928Z,101697.50
2022-11-27T01:45:00.397Z,101698.94
2022-11-27T01:47:36.565Z,101698.00
2022-11-27T01:50:10.032Z,101695.97
2022-11-27T01:52:44.107Z,101701.88
2022-11-27T01:55:18.958Z,101697.88
2022-11-27T01:57:50.277Z,101694.25
2022-11-27T02:00:20.392Z,101690.63
2022-11-27T02:02:49.984Z,101698.25
2022-11-27T02:05:22.425Z,101694.09
2022-11-27T02:07:54.968Z,101696.94
2022-11-27T02:10:24.536Z,101693.69
2022-11-27T02:12:58.399Z,101693.84
2022-11-27T02:15:33.005Z,101693.94
2022-11-27T02:18:07.441Z,101687.53
2022-11-27T02:20:43.573Z,101687.38
2022-11-27T02:23:33.206Z,101680.47
2022-11-27T02:26:27.396Z,101676.69
2022-11-27T02:29:05.003Z,101659.56
2022-11-27T02:31:39.280Z,101667.63
2022-11-27T02:34:14.490Z,101661.66
2022-11-27T02:36:44.453Z,101659.22
2022-11-27T02:39:14.950Z,101656.09
2022-11-27T02:41:45.814Z,101645.25
2022-11-27T02:44:17.909Z,101641.63
2022-11-27T02:46:47.617Z,101639.59
2022-11-27T02:49:19.329Z,101649.94
2022-11-27T02:51:50.679Z,101646.56
2022-11-27T02:54:22.400Z,101648.06
2022-11-27T02:56:51.950Z,101650.19
2022-11-27T02:59:24.039Z,101651.28
2022-11-27T03:01:54.963Z,101643.00
2022-11-27T03:04:26.169Z,101645.38
2022-11-27T03:06:56.110Z,101642.25
2022-11-27T03:09:28.124Z,101628.88
2022-11-27T03:11:58.055Z,101628.03
2022-11-27T03:14:30.143Z,101621.75
2022-11-27T03:17:03.720Z,101618.31
2022-11-27T03:19:35.330Z,101617.00
2022-11-27T03:22:05.253Z,101619.53
2022-11-27T03:24:36.074Z,101621.41
2022-11-27T03:27:05.636Z,101616.47
2022-11-27T03:29:38.873Z,101610.81
2022-11-27T03:32:08.758Z,101606.44
2022-11-27T03:34:38.549Z,101614.59
2022-11-27T03:37:08.194Z,101610.09
2022-11-27T03:39:37.676Z,101601.06
2022-11-27T03:42:13.725Z,101599.69
2022-11-27T03:44:48.921Z,101593.88
2022-11-27T03:47:24.171Z,101598.47
2022-11-27T03:50:00.143Z,101600.38
2022-11-27T03:52:32.005Z,101593.72
2022-11-27T03:55:03.147Z,101591.03
2022-11-27T03:57:32.887Z,101590.13
2022-11-27T04:00:06.636Z,101587.78
2022-11-27T04:02:42.654Z,101591.03
2022-11-27T04:05:12.464Z,101585.75
2022-11-27T04:07:42.083Z,101586.19
2022-11-27T04:10:12.945Z,101581.28
2022-11-27T04:12:42.385Z,101570.59
2022-11-27T04:15:14.804Z,101573.75
2022-11-27T04:17:44.264Z,101565.69
2022-11-27T04:20:15.337Z,101565.47
2022-11-27T04:22:44.546Z,101565.88
2022-11-27T04:25:14.189Z,101564.53
2022-11-27T04:27:43.685Z,101564.72
2022-11-27T04:30:16.592Z,101564.38
2022-11-27T04:32:46.073Z,101567.66
2022-11-27T04:35:15.507Z,101570.53
2022-11-27T04:37:44.941Z,101563.84
2022-11-27T04:40:15.764Z,101573.19
2022-11-27T04:42:45.265Z,101572.03
2022-11-27T04:45:17.438Z,101575.38
2022-11-27T04:47:46.904Z,101576.03
2022-11-27T04:50:16.347Z,101566.47
2022-11-27T04:52:45.806Z,101562.50
2022-11-27T04:55:15.316Z,101563.59
2022-11-27T04:57:44.736Z,101552.06
2022-11-27T05:00:17.812Z,101558.75
2022-11-27T05:02:47.304Z,101544.38
2022-11-27T05:05:17.275Z,101554.69
2022-11-27T05:07:46.770Z,101555.41
2022-11-27T05:10:16.275Z,101562.25
2022-11-27T05:12:45.880Z,101563.09
2022-11-27T05:15:17.987Z,101560.03
2022-11-27T05:17:47.412Z,101552.06
2022-11-27T05:20:16.873Z,101555.81
2022-11-27T05:22:48.282Z,101552.03
2022-11-27T05:25:17.900Z,101548.16
2022-11-27T05:27:47.355Z,101547.88
2022-11-27T05:30:19.504Z,101538.75
2022-11-27T05:32:48.949Z,101545.72
2022-11-27T05:35:18.556Z,101543.31
2022-11-27T05:37:48.001Z,101541.88
2022-11-27T05:40:17.783Z,101542.47
2022-11-27T05:42:47.221Z,101542.94
2022-11-27T05:45:19.357Z,101539.00
2022-11-27T05:47:48.843Z,101536.38
2022-11-27T05:50:18.519Z,101544.66
2022-11-27T05:52:48.039Z,101546.34
2022-11-27T05:55:17.652Z,101542.00
2022-11-27T05:57:47.087Z,101535.03
2022-11-27T06:00:20.155Z,101525.03
2022-11-27T06:02:49.682Z,101517.03
2022-11-27T06:05:19.382Z,101521.66
2022-11-27T06:07:48.859Z,101512.00
2022-11-27T06:10:19.015Z,101500.84
2022-11-27T06:12:48.700Z,101500.16
2022-11-27T06:15:20.899Z,101503.44
2022-11-27T06:17:51.543Z,101500.97
2022-11-27T06:20:21.794Z,101498.69
2022-11-27T06:22:51.303Z,101504.06
2022-11-27T06:25:20.789Z,101505.81
2022-11-27T06:27:50.246Z,101507.97
2022-11-27T06:30:22.395Z,101503.25
2022-11-27T06:32:51.832Z,101503.19
2022-11-27T06:35:21.316Z,101491.53
2022-11-27T06:37:50.770Z,101489.19
2022-11-27T06:40:20.503Z,101502.88
2022-11-27T06:42:49.979Z,101503.53
2022-11-27T06:45:22.048Z,101515.41
2022-11-27T06:47:51.495Z,101507.72
2022-11-27T06:50:21.041Z,101501.44
2022-11-27T06:52:50.637Z,101501.22
2022-11-27T06:55:20.112Z,101513.13
2022-11-27T06:57:49.528Z,101508.41
2022-11-27T07:00:22.826Z,101505.19
2022-11-27T07:02:56.628Z,101502.25
2022-11-27T07:05:26.341Z,101495.47
2022-11-27T07:07:55.849Z,101489.59
2022-11-27T07:10:25.563Z,101488.81
2022-11-27T07:12:55.073Z,101477.16
2022-11-27T07:15:27.125Z,101469.03
2022-11-27T07:17:56.594Z,101473.75
2022-11-27T07:20:26.051Z,101468.94
2022-11-27T07:22:55.487Z,101462.31
2022-11-27T07:25:25.008Z,101445.16
2022-11-27T07:27:54.438Z,101436.22
2022-11-27T07:30:23.922Z,101442.53
2022-11-27T07:32:55.952Z,101457.28
2022-11-27T07:35:25.417Z,101468.88
2022-11-27T07:37:54.903Z,101480.72
2022-11-27T07:40:24.361Z,101467.09
2022-11-27T07:42:53.772Z,101470.44
2022-11-27T07:45:23.333Z,101474.69
2022-11-27T07:47:52.870Z,101465.16
2022-11-27T07:50:24.986Z,101461.09
2022-11-27T07:52:54.424Z,101462.16
2022-11-27T07:55:23.883Z,101472.22
2022-11-27T07:57:53.659Z,101462.66
2022-11-27T08:00:24.236Z,101462.31
2022-11-27T08:02:53.718Z,101464.22
2022-11-27T08:05:25.800Z,101460.06
2022-11-27T08:07:55.281Z,101455.75
2022-11-27T08:10:24.836Z,101458.16
2022-11-27T08:12:54.275Z,101454.81
2022-11-27T08:15:23.715Z,101462.53
2022-11-27T08:17:53.188Z,101460.16
2022-11-27T08:20:25.348Z,101463.72
2022-11-27T08:22:59.555Z,101457.44
2022-11-27T08:25:31.891Z,101457.03
2022-11-27T08:28:01.432Z,101451.19
2022-11-27T08:30:30.886Z,101460.13
2022-11-27T08:33:00.296Z,101456.66
2022-11-27T08:35:32.343Z,101450.63
2022-11-27T08:38:01.764Z,101445.41
2022-11-27T08:40:31.255Z,101441.84
2022-11-27T08:43:01.223Z,101450.81
2022-11-27T08:45:32.885Z,101445.31
2022-11-27T08:48:02.386Z,101447.69
2022-11-27T08:50:34.420Z,101450.00
2022-11-27T08:53:03.868Z,101442.41
2022-11-27T08:55:33.313Z,101427.59
2022-11-27T08:58:03.952Z,101432.31
2022-11-27T09:00:33.677Z,101433.97
2022-11-27T09:03:03.200Z,101426.31
2022-11-27T09:05:35.344Z,101433.91
2022-11-27T09:08:05.550Z,101425.78
2022-11-27T09:10:35.057Z,101413.28
2022-11-27T09:13:04.501Z,101419.72
2022-11-27T09:15:34.342Z,101427.66
2022-11-27T09:18:03.772Z,101429.91
2022-11-27T09:20:35.843Z,101431.84
2022-11-27T09:23:08.915Z,101413.06
2022-11-27T09:25:41.417Z,101401.81
2022-11-27T09:28:10.859Z,101398.94
2022-11-27T09:30:40.315Z,101387.94
2022-11-27T09:33:09.772Z,101396.94
2022-11-27T09:35:42.758Z,101394.69
2022-11-27T09:38:12.203Z,101396.97
2022-11-27T09:40:46.581Z,101399.72
2022-11-27T09:43:16.036Z,101393.84
2022-11-27T09:45:47.043Z,101400.78
2022-11-27T09:48:18.102Z,101394.22
2022-11-27T09:50:53.002Z,101403.56
2022-11-27T09:53:28.588Z,101396.81
2022-11-27T09:55:58.206Z,101390.88
2022-11-27T09:58:40.376Z,101387.59
2022-11-27T10:01:14.003Z,101381.22
2022-11-27T10:03:44.547Z,101373.34
2022-11-27T10:06:24.340Z,101365.13
2022-11-27T10:09:02.314Z,101357.56
2022-11-27T10:11:33.464Z,101347.75
2022-11-27T10:14:06.031Z,101348.16
2022-11-27T10:16:44.122Z,101346.03
2022-11-27T10:19:20.083Z,101339.13
2022-11-27T10:21:53.895Z,101340.41
2022-11-27T10:24:26.501Z,101330.50
2022-11-27T10:26:56.183Z,101316.03
2022-11-27T10:29:33.264Z,101336.84
2022-11-27T10:32:04.207Z,101317.28
2022-11-27T10:34:37.310Z,101317.53
2022-11-27T10:37:13.521Z,101310.16
2022-11-27T10:39:44.700Z,101310.78
2022-11-27T10:42:15.384Z,101300.56
2022-11-27T10:44:46.855Z,101289.28
2022-11-27T10:47:16.417Z,101272.44
2022-11-27T10:49:45.832Z,101289.78
2022-11-27T10:52:19.320Z,101295.75
2022-11-27T10:54:52.070Z,101296.59
2022-11-27T10:57:29.840Z,101295.56
2022-11-27T11:00:05.062Z,101281.75
2022-11-27T11:02:35.585Z,101281.72
2022-11-27T11:08:20.860Z,101280.63
2022-11-27T11:10:53.704Z,101280.19
2022-11-27T11:13:27.241Z,101278.19
2022-11-27T11:16:01.429Z,101272.47
2022-11-27T11:18:31.936Z,101259.75
2022-11-27T11:21:02.011Z,101253.00
2022-11-27T11:23:35.512Z,101260.34
2022-11-27T11:26:07.083Z,101255.13
2022-11-27T11:28:39.710Z,101256.53
2022-11-27T11:31:11.363Z,101246.63
2022-11-27T11:33:43.357Z,101240.72
2022-11-27T11:36:14.016Z,101232.59
2022-11-27T11:38:47.221Z,101229.66
2022-11-27T11:41:18.162Z,101212.50
2022-11-27T11:43:56.759Z,101211.06
2022-11-27T11:46:28.649Z,101208.03
2022-11-27T11:49:03.025Z,101203.16
2022-11-27T11:51:52.558Z,101202.28
2022-11-27T11:54:34.429Z,101199.19
2022-11-27T11:57:05.091Z,101205.88
2022-11-27T11:59:42.123Z,101199.47
2022-11-27T12:02:28.185Z,101195.94
2022-11-27T12:05:06.268Z,101188.00
2022-11-27T12:07:46.326Z,101185.28
2022-11-27T12:10:23.603Z,101179.94
2022-11-27T12:12:59.091Z,101174.16
2022-11-27T12:15:30.407Z,101168.63
2022-11-27T12:18:01.847Z,101164.94
2022-11-27T12:20:36.821Z,101165.50
2022-11-27T12:23:29.980Z,101159.50
2022-11-27T12:26:07.227Z,101155.13
2022-11-27T12:28:53.254Z,101155.06
2022-11-27T12:31:33.751Z,101160.81
2022-11-27T12:34:04.263Z,101149.44
2022-11-27T12:36:46.549Z,101140.28
2022-11-27T12:39:20.849Z,101143.56
2022-11-27T12:42:02.075Z,101143.78
2022-11-27T12:44:33.355Z,101143.69
2022-11-27T12:47:04.762Z,101141.41
2022-11-27T12:49:35.528Z,101127.53
2022-11-27T12:52:08.564Z,101131.28
2022-11-27T12:54:40.703Z,101125.34
2022-11-27T12:57:16.296Z,101118.53
2022-11-27T12:59:46.709Z,101126.03
2022-11-27T13:02:25.618Z,101119.63
2022-11-27T13:04:57.344Z,101111.63
2022-11-27T13:07:27.649Z,101112.28
2022-11-27T13:09:59.601Z,101111.91
2022-11-27T13:12:33.595Z,101110.97
2022-11-27T13:15:04.559Z,101098.13
2022-11-27T13:17:39.460Z,101107.94
2022-11-27T13:20:11.649Z,101101.91
2022-11-27T13:22:41.115Z,101096.06
2022-11-27T13:25:14.690Z,101099.03
2022-11-27T13:27:48.704Z,101085.00
2022-11-27T13:30:23.088Z,101088.84
2022-11-27T13:32:53.748Z,101080.50
2022-11-27T13:35:24.923Z,101079.25
2022-11-27T13:37:57.865Z,101057.56
2022-11-27T13:40:30.928Z,101058.75
2022-11-27T13:43:06.210Z,101045.03
2022-11-27T13:45:37.558Z,101030.25
2022-11-27T13:48:18.432Z,101021.66
2022-11-27T13:50:47.890Z,101019.66
2022-11-27T13:53:17.407Z,101009.38
2022-11-27T13:55:55.878Z,100993.69
2022-11-27T13:58:34.013Z,100989.56
2022-11-27T14:01:15.438Z,100981.81
2022-11-27T14:03:44.950Z,100988.72
2022-11-27T14:06:18.912Z,100984.88
2022-11-27T14:08:52.890Z,100974.38
2022-11-27T14:11:34.747Z,100984.41
2022-11-27T14:14:15.758Z,100979.16
2022-11-27T14:16:45.261Z,100965.81
2022-11-27T14:19:33.259Z,100967.75
2022-11-27T14:22:03.497Z,100963.19
2022-11-27T14:24:41.622Z,100957.88
2022-11-27T14:27:18.795Z,100965.06
2022-11-27T14:29:50.830Z,100969.22
2022-11-27T14:32:20.970Z,100957.50
2022-11-27T14:34:50.704Z,100959.06
2022-11-27T14:37:24.855Z,100953.38
2022-11-27T14:39:54.346Z,100954.78
2022-11-27T14:42:28.600Z,100950.06
2022-11-27T14:45:09.056Z,100947.13
2022-11-27T14:47:38.492Z,100943.81
2022-11-27T14:50:09.548Z,100947.88
2022-11-27T14:52:39.148Z,100944.13
2022-11-27T14:55:09.046Z,100943.28
2022-11-27T14:57:38.480Z,100934.06
2022-11-27T15:00:18.452Z,100948.47
2022-11-27T15:02:48.297Z,100940.50
2022-11-27T15:05:20.828Z,100938.84
2022-11-27T15:07:51.264Z,100941.72
2022-11-27T15:10:32.310Z,100953.78
2022-11-27T15:13:02.401Z,100934.47
2022-11-27T15:15:35.728Z,100921.53
2022-11-27T15:18:06.671Z,100917.06
2022-11-27T15:20:39.166Z,100933.59
2022-11-27T15:23:16.759Z,100911.34
2022-11-27T15:25:47.419Z,100898.88
2022-11-27T15:28:30.700Z,100914.16
2022-11-27T15:31:02.751Z,100897.03
2022-11-27T15:33:32.795Z,100915.72
2022-11-27T15:36:17.673Z,100887.34
2022-11-27T15:38:50.777Z,100897.22
2022-11-27T15:41:23.007Z,100893.09
2022-11-27T15:43:52.593Z,100883.72
2022-11-27T15:46:26.854Z,100894.28
2022-11-27T15:48:56.315Z,100897.22
2022-11-27T15:51:25.833Z,100899.03
2022-11-27T15:53:55.296Z,100891.81
2022-11-27T15:56:24.762Z,100888.38
2022-11-27T15:58:54.233Z,100896.56
2022-11-27T16:01:26.356Z,100887.03
2022-11-27T16:03:55.871Z,100891.31
2022-11-27T16:06:25.882Z,100888.84
2022-11-27T16:08:58.559Z,100889.16
2022-11-27T16:11:28.198Z,100890.47
2022-11-27T16:13:57.621Z,100881.09
2022-11-27T16:16:29.930Z,100877.84
2022-11-27T16:19:00.874Z,100897.56
2022-11-27T16:21:30.511Z,100885.53
2022-11-27T16:24:00.600Z,100878.97
2022-11-27T16:26:30.105Z,100879.13
2022-11-27T16:28:59.538Z,100873.22
2022-11-27T16:31:31.626Z,100870.25
2022-11-27T16:34:02.149Z,100855.28
2022-11-27T16:36:31.647Z,100855.13
2022-11-27T16:39:01.087Z,100859.72
2022-11-27T16:41:30.503Z,100849.00
2022-11-27T16:43:59.916Z,100850.81
2022-11-27T16:46:32.493Z,100840.91
2022-11-27T16:49:04.014Z,100832.06
2022-11-27T16:51:34.019Z,100832.59
2022-11-27T16:54:04.466Z,100827.28
2022-11-27T16:56:34.570Z,100826.97
2022-11-27T16:59:04.004Z,100811.81
2022-11-27T17:01:36.840Z,100806.59
2022-11-27T17:04:08.967Z,100805.09
2022-11-27T17:06:39.117Z,100798.03
2022-11-27T17:09:09.529Z,100798.56
2022-11-27T17:11:39.741Z,100788.75
2022-11-27T17:14:09.967Z,100779.22
2022-11-27T17:16:42.780Z,100784.09
2022-11-27T17:19:13.486Z,100785.06
2022-11-27T17:21:43.191Z,100787.72
2022-11-27T17:24:16.162Z,100786.44
2022-11-27T17:26:46.128Z,100785.47
2022-11-27T17:29:16.423Z,100779.06
2022-11-27T17:31:48.521Z,100770.47
2022-11-27T17:34:18.581Z,100763.78
2022-11-27T17:36:53.361Z,100770.16
2022-11-27T17:39:22.961Z,100762.59
2022-11-27T17:41:52.558Z,100767.66
2022-11-27T17:44:22.075Z,100752.75
2022-11-27T17:46:54.229Z,100751.19
2022-11-27T17:49:24.495Z,100749.91
2022-11-27T17:51:53.944Z,100746.00
2022-11-27T17:54:23.408Z,100735.31
2022-11-27T17:56:52.896Z,100742.22
2022-11-27T17:59:22.422Z,100737.09
2022-11-27T18:01:54.504Z,100735.81
2022-11-27T18:04:24.343Z,100730.06
2022-11-27T18:06:53.822Z,100730.75
2022-11-27T18:09:23.467Z,100719.72
2022-11-27T18:11:54.868Z,100721.53
2022-11-27T18:14:24.308Z,100711.34
2022-11-27T18:16:56.574Z,100712.34
2022-11-27T18:19:26.107Z,100708.72
2022-11-27T18:21:55.554Z,100707.22
2022-11-27T18:24:25.573Z,100698.34
2022-11-27T18:27:11.326Z,100693.53
2022-11-27T18:29:42.272Z,100691.47
2022-11-27T18:32:14.947Z,100684.59
2022-11-27T18:34:44.547Z,100680.44
2022-11-27T18:37:14.219Z,100666.50
2022-11-27T18:39:45.410Z,100653.22
2022-11-27T18:42:15.018Z,100661.56
2022-11-27T18:44:45.289Z,100654.34
2022-11-27T18:47:17.780Z,100662.25
2022-11-27T18:49:47.251Z,100674.66
2022-11-27T18:52:16.693Z,100672.19
2022-11-27T18:54:46.847Z,100665.00
2022-11-27T18:57:16.303Z,100667.28
2022-11-27T18:59:45.987Z,100653.78
2022-11-27T19:02:18.413Z,100651.41
2022-11-27T19:04:47.916Z,100655.31
2022-11-27T19:07:17.598Z,100645.47
2022-11-27T19:09:47.085Z,100640.88
2022-11-27T19:12:16.524Z,100640.56
2022-11-27T19:14:46.134Z,100638.25
2022-11-27T19:17:18.589Z,100644.81
2022-11-27T19:19:55.356Z,100642.03
2022-11-27T19:22:24.927Z,100638.59
2022-11-27T19:24:54.372Z,100631.00
2022-11-27T19:27:24.060Z,100635.75
2022-11-27T19:29:53.610Z,100628.16
2022-11-27T19:32:25.691Z,100617.25
2022-11-27T19:34:55.157Z,100622.34
2022-11-27T19:37:34.084Z,100601.94
2022-11-27T19:40:05.114Z,100605.34
2022-11-27T19:42:35.975Z,100611.66
2022-11-27T19:45:05.426Z,100609.75
2022-11-27T19:47:37.465Z,100606.03
2022-11-27T19:50:07.899Z,100614.25
2022-11-27T19:52:37.855Z,100611.22
2022-11-27T19:55:08.084Z,100612.16
2022-11-27T19:57:37.567Z,100606.25
2022-11-27T20:00:07.870Z,100606.66
2022-11-27T20:02:40.990Z,100601.63
2022-11-27T20:05:11.115Z,100591.94
2022-11-27T20:07:40.650Z,100588.78
2022-11-27T20:10:10.907Z,100588.06
2022-11-27T20:12:41.047Z,100590.53
2022-11-27T20:15:14.271Z,100586.38
2022-11-27T20:17:46.456Z,100581.22
2022-11-27T20:20:16.940Z,100582.94
2022-11-27T20:22:46.422Z,100585.06
2022-11-27T20:25:19.876Z,100579.28
2022-11-27T20:27:50.570Z,100578.47
2022-11-27T20:30:20.436Z,100570.06
2022-11-27T20:32:54.581Z,100574.69
2022-11-27T20:35:24.044Z,100587.59
2022-11-27T20:37:53.524Z,100587.09
2022-11-27T20:40:25.675Z,100574.59
2022-11-27T20:42:55.220Z,100576.50
2022-11-27T20:45:24.723Z,100573.50
2022-11-27T20:47:56.790Z,100554.56
2022-11-27T20:50:26.248Z,100563.84
2022-11-27T20:52:55.691Z,100556.75
2022-11-27T20:55:25.120Z,100549.81
2022-11-27T20:57:55.112Z,100541.84
2022-11-27T21:00:24.963Z,100534.63
2022-11-27T21:02:57.045Z,100534.63
2022-11-27T21:05:26.471Z,100534.16
2022-11-27T21:07:57.639Z,100531.69
2022-11-27T21:10:28.365Z,100524.47
2022-11-27T21:12:57.880Z,100531.88
2022-11-27T21:15:27.317Z,100544.22
2022-11-27T21:17:59.340Z,100537.00
2022-11-27T21:20:28.784Z,100539.72
2022-11-27T21:22:58.486Z,100531.84
2022-11-27T21:25:28.447Z,100516.09
2022-11-27T21:27:59.486Z,100510.09
2022-11-27T21:30:28.937Z,100512.31
2022-11-27T21:33:00.983Z,100510.25
2022-11-27T21:35:32.733Z,100495.41
2022-11-27T21:38:04.244Z,100497.06
2022-11-27T21:40:33.662Z,100502.16
2022-11-27T21:43:03.135Z,100489.91
2022-11-27T21:45:32.697Z,100501.56
2022-11-27T21:48:04.840Z,100506.78
2022-11-27T21:50:34.320Z,100508.16
2022-11-27T21:53:04.104Z,100502.41
2022-11-27T21:55:33.648Z,100505.00
2022-11-27T21:58:03.117Z,100503.72
2022-11-27T22:00:32.558Z,100498.53
2022-11-27T22:03:04.667Z,100496.00
2022-11-27T22:05:34.080Z,100507.16
2022-11-27T22:08:03.691Z,100503.03
2022-11-27T22:10:33.192Z,100509.66
2022-11-27T22:13:02.662Z,100499.75
2022-11-27T22:15:32.135Z,100496.66
2022-11-27T22:18:04.219Z,100479.88
2022-11-27T22:20:33.694Z,100472.25
2022-11-27T22:23:03.152Z,100483.00
2022-11-27T22:25:32.659Z,100474.97
2022-11-27T22:28:02.096Z,100478.59
2022-11-27T22:30:31.607Z,100470.31
2022-11-27T22:33:03.938Z,100464.19
2022-11-27T22:35:33.399Z,100469.84
2022-11-27T22:38:02.846Z,100465.38
2022-11-27T22:40:32.278Z,100466.91
2022-11-27T22:43:01.744Z,100459.03
2022-11-27T22:45:31.238Z,100454.59
2022-11-27T22:48:00.700Z,100462.00
2022-11-27T22:50:32.702Z,100452.22
2022-11-27T22:53:02.159Z,100447.34
2022-11-27T22:55:31.624Z,100446.88
2022-11-27T22:58:01.047Z,100444.44
2022-11-27T23:00:30.761Z,100435.53
2022-11-27T23:03:00.310Z,100434.91
2022-11-27T23:05:32.401Z,100429.31
2022-11-27T23:08:01.887Z,100418.97
2022-11-27T23:10:31.394Z,100425.66
2022-11-27T23:13:00.839Z,100433.66
2022-11-27T23:15:30.315Z,100442.16
2022-11-27T23:17:59.958Z,100445.72
2022-11-27T23:20:32.001Z,100434.56
2022-11-27T23:23:01.429Z,100434.41
2022-11-27T23:25:31.602Z,100431.59
2022-11-27T23:28:01.081Z,100416.97
2022-11-27T23:30:30.513Z,100414.72
2022-11-27T23:32:59.955Z,100409.38
2022-11-27T23:35:32.021Z,100404.50
2022-11-27T23:38:01.484Z,100393.28
2022-11-27T23:40:30.911Z,100392.75
2022-11-27T23:43:00.400Z,100397.38
2022-11-27T23:45:29.953Z,100391.75
2022-11-27T23:47:59.432Z,100388.91
2022-11-27T23:50:28.924Z,100385.44
2022-11-27T23:53:00.973Z,100385.63
2022-11-27T23:55:30.457Z,100382.47
2022-11-27T23:57:59.904Z,100386.72
